Time;durP1;ratioP1;P1;durP2;ratioP2;P2;SDS_P1;SDS_P2;PMS_P1;PMS_P2;Temp;Humidity;BMP_temperature;BMP_pressure;BME280_temperature;BME280_humidity;BME280_pressure;Samples;Min_cycle;Max_cycle;Signal;HPM_P1;HPM_P2
2023/10/05 00:01:10;;;;;;;9.48;3.53;;;14.40;99.90;;;;;;5031507;28;20195;-80
2023/10/05 00:03:38;;;;;;;10.30;3.53;;;14.30;99.90;;;;;;5021808;28;20215;-80
2023/10/05 00:06:13;;;;;;;8.48;3.70;;;14.40;99.90;;;;;;5026883;28;20199;-80
2023/10/05 00:08:43;;;;;;;8.55;3.45;;;14.40;99.90;;;;;;5043312;28;20219;-80
2023/10/05 00:11:22;;;;;;;7.68;4.25;;;14.30;99.90;;;;;;5021426;28;20556;-80
2023/10/05 00:13:50;;;;;;;10.88;3.45;;;14.30;99.90;;;;;;5019703;28;20199;-80
2023/10/05 00:16:21;;;;;;;9.30;3.60;;;14.40;99.90;;;;;;5031449;28;20204;-80
2023/10/05 00:18:50;;;;;;;9.43;4.00;;;14.30;99.90;;;;;;5026280;28;20211;-80
2023/10/05 00:21:19;;;;;;;11.55;3.80;;;14.20;99.90;;;;;;5021177;28;20210;-80
2023/10/05 00:23:50;;;;;;;6.07;3.10;;;14.10;99.90;;;;;;5028617;28;20665;-80
2023/10/05 00:26:22;;;;;;;11.52;4.10;;;14.10;99.90;;;;;;5022530;28;20259;-80
2023/10/05 00:29:04;;;;;;;6.93;3.88;;;14.20;99.90;;;;;;5022430;28;20207;-79
2023/10/05 00:31:38;;;;;;;8.82;4.05;;;14.20;99.90;;;;;;5026284;28;20590;-80
2023/10/05 00:34:09;;;;;;;8.50;3.30;;;14.20;99.90;;;;;;5034699;28;20191;-80
2023/10/05 00:36:39;;;;;;;10.20;3.47;;;14.20;99.90;;;;;;5029907;28;20202;-80
2023/10/05 00:39:09;;;;;;;7.95;3.80;;;14.20;99.90;;;;;;5018281;28;20685;-80
2023/10/05 00:41:36;;;;;;;9.73;3.63;;;14.20;99.90;;;;;;5027331;28;20202;-80
2023/10/05 00:44:05;;;;;;;8.05;3.10;;;14.10;99.90;;;;;;5017074;28;20234;-80
2023/10/05 00:46:38;;;;;;;7.32;3.17;;;14.20;99.90;;;;;;5034069;28;20191;-80
2023/10/05 00:49:14;;;;;;;8.52;3.83;;;14.10;99.90;;;;;;5023643;28;20226;-80
2023/10/05 00:51:44;;;;;;;9.25;3.67;;;14.10;99.90;;;;;;5024468;28;20190;-80
2023/10/05 00:54:17;;;;;;;7.43;3.53;;;14.10;99.90;;;;;;5026549;28;20199;-80
2023/10/05 00:56:46;;;;;;;9.35;3.42;;;14.20;99.90;;;;;;5043233;28;20598;-80
2023/10/05 00:59:20;;;;;;;5.97;2.90;;;14.10;99.90;;;;;;5025003;28;20216;-80
2023/10/05 01:02:04;;;;;;;5.63;3.63;;;14.20;99.90;;;;;;5043986;28;20202;-80
2023/10/05 01:04:52;;;;;;;6.43;3.50;;;14.10;99.90;;;;;;5032689;28;20207;-80
2023/10/05 01:07:28;;;;;;;11.70;3.53;;;14.10;99.90;;;;;;5043884;28;20203;-80
2023/10/05 01:10:21;;;;;;;8.25;3.70;;;14.10;99.90;;;;;;5023344;28;20340;-80
2023/10/05 01:12:50;;;;;;;8.68;2.70;;;14.10;99.90;;;;;;5026510;28;20195;-80
2023/10/05 01:15:22;;;;;;;11.57;3.35;;;14.10;99.90;;;;;;5025488;28;20204;-80
2023/10/05 01:17:51;;;;;;;5.85;3.05;;;14.10;99.90;;;;;;5029352;28;20563;-80
2023/10/05 01:20:26;;;;;;;9.63;3.10;;;14.10;99.90;;;;;;5026043;28;20677;-80
2023/10/05 01:22:57;;;;;;;7.50;3.35;;;14.10;99.90;;;;;;5028238;28;20194;-80
2023/10/05 01:25:27;;;;;;;9.35;3.20;;;14.00;99.90;;;;;;5017180;28;20220;-80
2023/10/05 01:27:55;;;;;;;6.72;3.30;;;14.00;99.90;;;;;;5042748;28;20314;-80
2023/10/05 01:30:23;;;;;;;6.07;3.13;;;14.00;99.90;;;;;;5017010;28;20199;-80
2023/10/05 01:32:50;;;;;;;10.75;3.25;;;14.00;99.90;;;;;;5032861;28;20206;-80
2023/10/05 01:35:19;;;;;;;10.07;3.20;;;14.00;99.90;;;;;;5032864;28;20661;-80
2023/10/05 01:37:51;;;;;;;9.93;3.95;;;14.00;99.90;;;;;;5031491;28;20203;-80
2023/10/05 01:40:24;;;;;;;8.77;3.53;;;14.00;99.90;;;;;;5027185;28;20278;-79
2023/10/05 01:42:54;;;;;;;8.20;3.13;;;14.10;99.90;;;;;;5033003;28;20195;-79
2023/10/05 01:45:25;;;;;;;6.90;2.60;;;14.00;99.90;;;;;;5028906;28;20230;-80
2023/10/05 01:47:54;;;;;;;7.80;3.28;;;14.00;99.90;;;;;;5034921;28;20219;-80
2023/10/05 01:50:23;;;;;;;8.52;2.88;;;14.00;99.90;;;;;;5019739;28;20211;-80
2023/10/05 01:52:56;;;;;;;7.68;3.08;;;14.00;99.90;;;;;;5027858;28;20207;-80
2023/10/05 01:55:25;;;;;;;6.82;3.28;;;14.00;99.90;;;;;;5021534;28;20192;-80
2023/10/05 01:57:54;;;;;;;6.18;3.20;;;14.00;99.90;;;;;;5021373;28;20215;-80
2023/10/05 02:00:23;;;;;;;6.97;2.70;;;13.90;99.90;;;;;;5024662;28;20197;-80
2023/10/05 02:02:52;;;;;;;5.20;2.92;;;13.90;99.90;;;;;;5021177;28;20207;-80
2023/10/05 02:05:21;;;;;;;6.88;3.50;;;14.00;99.90;;;;;;5033684;28;20215;-80
2023/10/05 02:07:49;;;;;;;11.07;3.28;;;13.90;99.90;;;;;;5029673;28;20560;-80
2023/10/05 02:10:19;;;;;;;8.10;3.30;;;13.90;99.90;;;;;;5029414;28;20207;-80
2023/10/05 02:12:53;;;;;;;6.43;3.42;;;13.90;99.90;;;;;;5024773;28;20203;-80
2023/10/05 02:15:28;;;;;;;6.43;2.92;;;13.90;99.90;;;;;;5032539;28;20194;-80
2023/10/05 02:17:59;;;;;;;6.07;2.88;;;13.80;99.90;;;;;;5023908;28;20226;-80
2023/10/05 02:20:41;;;;;;;9.80;3.42;;;13.80;99.90;;;;;;5032170;28;20568;-80
2023/10/05 02:23:24;;;;;;;8.05;2.92;;;13.80;99.90;;;;;;5028456;28;20195;-80
2023/10/05 02:25:57;;;;;;;7.45;3.22;;;13.80;99.90;;;;;;5017695;28;20212;-80
2023/10/05 02:28:26;;;;;;;6.63;2.85;;;13.80;99.90;;;;;;5034214;28;20219;-80
2023/10/05 02:30:59;;;;;;;8.60;3.65;;;13.80;99.90;;;;;;5028020;28;20198;-80
2023/10/05 02:33:28;;;;;;;6.82;3.50;;;13.80;99.90;;;;;;5021092;28;20195;-80
2023/10/05 02:36:00;;;;;;;8.63;3.55;;;13.80;99.90;;;;;;5029663;28;20207;-80
2023/10/05 02:38:28;;;;;;;8.35;2.90;;;13.80;99.90;;;;;;5020137;28;20230;-80
2023/10/05 02:41:03;;;;;;;8.00;2.95;;;13.80;99.90;;;;;;5026845;28;20253;-80
2023/10/05 02:43:38;;;;;;;9.32;3.53;;;13.70;99.90;;;;;;5026505;28;20202;-80
2023/10/05 02:46:11;;;;;;;7.60;2.85;;;13.70;99.90;;;;;;5023405;28;20207;-80
2023/10/05 02:48:41;;;;;;;9.60;2.92;;;13.70;99.90;;;;;;5019010;28;20231;-80
2023/10/05 02:51:11;;;;;;;8.60;3.22;;;13.70;99.90;;;;;;5028770;28;20214;-80
2023/10/05 02:53:42;;;;;;;6.97;3.53;;;13.70;99.90;;;;;;5029335;28;20211;-80
2023/10/05 02:56:22;;;;;;;6.25;3.33;;;13.80;99.90;;;;;;5022160;28;20207;-80
2023/10/05 02:58:52;;;;;;;8.70;3.15;;;13.70;99.90;;;;;;5025949;28;20211;-80
2023/10/05 03:01:21;;;;;;;6.85;3.50;;;13.80;99.90;;;;;;5026413;28;20199;-80
2023/10/05 03:03:51;;;;;;;7.93;3.00;;;13.70;99.90;;;;;;5026020;28;20215;-80
2023/10/05 03:06:22;;;;;;;8.23;3.10;;;13.70;99.90;;;;;;5030282;28;20219;-80
2023/10/05 03:08:54;;;;;;;8.18;4.03;;;13.70;99.90;;;;;;5026108;28;20230;-80
2023/10/05 03:11:22;;;;;;;6.80;2.97;;;13.70;99.90;;;;;;5034266;28;20198;-80
2023/10/05 03:13:50;;;;;;;9.93;3.55;;;13.70;99.90;;;;;;5019747;28;20207;-80
2023/10/05 03:16:21;;;;;;;11.00;3.13;;;13.70;99.90;;;;;;5032139;28;20191;-80
2023/10/05 03:18:49;;;;;;;5.75;3.10;;;13.80;99.90;;;;;;5048801;28;20223;-80
2023/10/05 03:21:18;;;;;;;9.70;3.88;;;13.80;99.90;;;;;;5029172;28;20209;-80
2023/10/05 03:23:46;;;;;;;8.68;3.17;;;13.70;99.90;;;;;;5023398;28;20207;-80
2023/10/05 03:26:18;;;;;;;9.20;3.00;;;13.70;99.90;;;;;;5030421;28;20214;-80
2023/10/05 03:28:46;;;;;;;5.28;2.88;;;13.70;99.90;;;;;;5018989;28;20693;-80
2023/10/05 03:31:14;;;;;;;11.45;3.15;;;13.70;99.90;;;;;;5018997;28;20211;-80
2023/10/05 03:33:44;;;;;;;6.90;3.22;;;13.80;99.90;;;;;;5027279;28;20199;-80
2023/10/05 03:36:15;;;;;;;8.30;2.85;;;13.70;99.90;;;;;;5020503;28;20196;-80
2023/10/05 03:38:43;;;;;;;7.25;3.30;;;13.70;99.90;;;;;;5024895;28;20242;-80
2023/10/05 03:41:16;;;;;;;11.02;3.88;;;13.70;99.90;;;;;;5025944;28;20577;-80
2023/10/05 03:43:46;;;;;;;10.48;3.42;;;13.70;99.90;;;;;;5025427;28;20198;-80
2023/10/05 03:46:17;;;;;;;6.45;3.08;;;13.70;99.90;;;;;;5027043;28;20570;-80
2023/10/05 03:48:46;;;;;;;7.00;3.10;;;13.60;99.90;;;;;;5026199;28;20218;-80
2023/10/05 03:51:16;;;;;;;7.90;3.53;;;13.60;99.90;;;;;;5023658;28;20196;-80
2023/10/05 03:53:48;;;;;;;7.15;3.22;;;13.60;99.90;;;;;;5019020;28;20226;-80
2023/10/05 03:56:23;;;;;;;8.05;3.10;;;13.70;99.90;;;;;;5030311;28;20206;-79
2023/10/05 03:58:52;;;;;;;6.57;3.00;;;13.70;99.90;;;;;;5021156;28;20220;-79
2023/10/05 04:01:22;;;;;;;7.10;2.83;;;13.60;99.90;;;;;;5016382;28;20204;-77
2023/10/05 04:03:50;;;;;;;5.13;2.90;;;13.60;99.90;;;;;;5024869;28;20199;-79
2023/10/05 04:06:18;;;;;;;8.23;3.13;;;13.60;99.90;;;;;;5025094;28;20208;-79
2023/10/05 04:08:48;;;;;;;5.30;2.75;;;13.60;99.90;;;;;;5029894;28;20218;-79
2023/10/05 04:11:16;;;;;;;7.13;3.15;;;13.60;99.90;;;;;;5021219;28;20211;-79
2023/10/05 04:13:44;;;;;;;8.30;2.97;;;13.60;99.90;;;;;;5024806;28;20203;-79
2023/10/05 04:16:17;;;;;;;9.00;3.53;;;13.50;99.90;;;;;;5027309;28;20211;-79
2023/10/05 04:18:49;;;;;;;5.80;3.03;;;13.50;99.90;;;;;;5021675;28;20234;-79
2023/10/05 04:21:22;;;;;;;10.73;2.83;;;13.40;99.90;;;;;;5013604;28;20642;-79
2023/10/05 04:23:50;;;;;;;10.10;3.40;;;13.50;99.90;;;;;;5028586;28;20206;-79
2023/10/05 04:26:19;;;;;;;8.77;3.30;;;13.50;99.90;;;;;;5022793;28;20227;-79
2023/10/05 04:28:54;;;;;;;4.70;2.53;;;13.50;99.90;;;;;;5027001;28;20219;-79
2023/10/05 04:31:25;;;;;;;7.53;2.97;;;13.50;99.90;;;;;;5019054;28;20211;-78
2023/10/05 04:33:54;;;;;;;5.90;3.17;;;13.50;99.90;;;;;;5026673;28;20199;-79
2023/10/05 04:36:24;;;;;;;5.90;2.72;;;13.40;99.90;;;;;;5044736;28;20207;-79
2023/10/05 04:38:57;;;;;;;6.25;3.00;;;13.50;99.90;;;;;;5026178;28;20235;-79
2023/10/05 04:41:28;;;;;;;5.15;2.63;;;13.40;99.90;;;;;;5024973;28;20203;-79
2023/10/05 04:43:56;;;;;;;6.35;2.92;;;13.40;99.90;;;;;;5028287;28;20199;-79
2023/10/05 04:46:24;;;;;;;7.70;2.97;;;13.40;99.90;;;;;;5015249;28;20238;-79
2023/10/05 04:49:07;;;;;;;7.63;2.83;;;13.40;99.90;;;;;;5018657;28;20224;-79
2023/10/05 04:55:41;;;;;;;7.88;3.00;;;13.40;99.90;;;;;;5030360;28;20167;-79
2023/10/05 04:58:23;;;;;;;7.38;2.70;;;13.40;99.90;;;;;;5025970;28;20614;-78
2023/10/05 05:00:54;;;;;;;10.57;3.08;;;13.40;99.90;;;;;;5024472;28;20203;-79
2023/10/05 05:03:48;;;;;;;6.00;2.67;;;13.40;99.90;;;;;;5027143;28;20182;-78
2023/10/05 05:06:15;;;;;;;8.50;3.03;;;13.30;99.90;;;;;;5027442;28;20215;-78
2023/10/05 05:08:44;;;;;;;9.07;2.93;;;13.30;99.90;;;;;;5028206;28;20692;-78
2023/10/05 05:11:25;;;;;;;5.05;2.85;;;13.30;99.90;;;;;;5025504;28;20194;-78
2023/10/05 05:13:52;;;;;;;10.23;3.30;;;13.30;99.90;;;;;;5029617;28;20191;-78
2023/10/05 05:16:20;;;;;;;8.80;3.50;;;13.30;99.90;;;;;;5020921;28;20194;-78
2023/10/05 05:18:48;;;;;;;6.25;3.03;;;13.30;99.90;;;;;;5022121;28;20220;-78
2023/10/05 05:21:15;;;;;;;10.40;2.97;;;13.30;99.90;;;;;;5024957;28;20211;-79
2023/10/05 05:23:42;;;;;;;6.22;3.50;;;13.30;99.90;;;;;;5019441;28;20200;-78
2023/10/05 05:26:11;;;;;;;7.22;2.80;;;13.40;99.90;;;;;;5021107;28;20200;-79
2023/10/05 05:28:49;;;;;;;6.35;2.95;;;13.40;99.90;;;;;;5021449;28;20230;-79
2023/10/05 05:31:17;;;;;;;9.52;3.78;;;13.30;99.90;;;;;;5027039;28;20572;-79
2023/10/05 05:33:45;;;;;;;7.60;3.25;;;13.30;99.90;;;;;;5017595;28;20217;-78
2023/10/05 05:36:13;;;;;;;9.98;3.92;;;13.30;99.90;;;;;;5021731;28;20210;-79
2023/10/05 05:38:41;;;;;;;9.07;3.00;;;13.30;99.90;;;;;;5027940;28;20238;-79
2023/10/05 05:41:12;;;;;;;8.77;3.73;;;13.30;99.90;;;;;;5028760;28;20214;-79
2023/10/05 05:43:41;;;;;;;12.45;3.40;;;13.30;99.90;;;;;;5035611;28;20211;-79
2023/10/05 05:46:12;;;;;;;5.33;3.00;;;13.40;99.90;;;;;;5026492;28;20203;-79
2023/10/05 05:48:42;;;;;;;6.00;2.63;;;13.30;99.90;;;;;;5019714;28;20218;-79
2023/10/05 05:51:14;;;;;;;10.75;3.45;;;13.30;99.90;;;;;;5019285;28;20210;-79
2023/10/05 05:53:52;;;;;;;6.00;3.25;;;13.30;99.90;;;;;;5024659;28;20218;-79
2023/10/05 05:56:42;;;;;;;5.95;3.55;;;13.30;99.90;;;;;;5024726;28;20203;-79
2023/10/05 05:59:13;;;;;;;8.57;3.33;;;13.30;99.90;;;;;;5017015;28;20222;-79
2023/10/05 06:01:40;;;;;;;8.95;3.58;;;13.30;99.90;;;;;;5017547;28;20297;-79
2023/10/05 06:04:12;;;;;;;6.20;2.97;;;13.40;99.90;;;;;;5021794;28;20196;-80
2023/10/05 06:06:42;;;;;;;6.60;3.38;;;13.40;99.90;;;;;;5033102;28;20230;-79
2023/10/05 06:09:37;;;;;;;7.72;3.58;;;13.30;99.90;;;;;;5021475;28;20223;-79
2023/10/05 06:12:05;;;;;;;7.20;3.33;;;13.30;99.90;;;;;;5020751;28;20199;-78
2023/10/05 06:14:34;;;;;;;6.07;3.50;;;13.40;99.90;;;;;;5015161;28;20211;-78
2023/10/05 06:17:02;;;;;;;7.22;3.40;;;13.40;99.90;;;;;;5016058;28;20207;-78
2023/10/05 06:19:29;;;;;;;6.63;3.72;;;13.50;99.90;;;;;;5035039;28;20238;-77
2023/10/05 06:21:56;;;;;;;10.85;3.10;;;13.40;99.90;;;;;;5041026;28;20203;-77
2023/10/05 06:24:25;;;;;;;8.27;2.90;;;13.40;99.90;;;;;;5018211;28;20215;-77
2023/10/05 06:26:52;;;;;;;6.90;2.60;;;13.40;99.90;;;;;;5016544;28;20248;-77
2023/10/05 06:29:19;;;;;;;5.32;2.90;;;13.40;99.90;;;;;;5012828;28;20245;-76
2023/10/05 06:31:48;;;;;;;9.77;3.72;;;13.50;99.90;;;;;;5026144;28;20663;-75
2023/10/05 06:34:16;;;;;;;10.07;3.45;;;13.50;99.90;;;;;;5035965;28;20563;-77
2023/10/05 06:36:43;;;;;;;11.98;3.63;;;13.60;99.90;;;;;;5022734;28;20202;-76
2023/10/05 06:39:14;;;;;;;5.00;3.00;;;13.50;99.90;;;;;;5020697;28;20729;-76
2023/10/05 06:41:41;;;;;;;5.70;3.15;;;13.60;99.90;;;;;;5014856;28;20203;-76
2023/10/05 06:44:10;;;;;;;8.00;3.22;;;13.60;99.90;;;;;;5020087;28;20204;-76
2023/10/05 06:46:40;;;;;;;12.80;3.42;;;13.60;99.90;;;;;;5019900;28;20214;-76
2023/10/05 06:49:10;;;;;;;5.85;2.95;;;13.50;99.90;;;;;;5012726;28;20704;-76
2023/10/05 06:51:43;;;;;;;9.00;3.50;;;13.50;99.90;;;;;;5014209;28;20207;-76
2023/10/05 06:54:13;;;;;;;8.52;3.00;;;13.60;99.90;;;;;;5010527;28;20199;-76
2023/10/05 06:56:41;;;;;;;7.50;3.45;;;13.50;99.90;;;;;;5015566;28;20195;-76
2023/10/05 06:59:09;;;;;;;6.78;3.05;;;13.60;99.90;;;;;;5023546;28;20219;-76
2023/10/05 07:01:36;;;;;;;7.35;2.85;;;13.60;99.90;;;;;;5020771;28;20211;-76
2023/10/05 07:04:07;;;;;;;6.88;3.22;;;13.60;99.90;;;;;;5021546;28;20196;-76
2023/10/05 07:06:36;;;;;;;8.65;3.60;;;13.70;99.90;;;;;;5018444;28;20590;-76
2023/10/05 07:09:14;;;;;;;12.57;3.42;;;13.60;99.90;;;;;;5020160;28;20219;-76
2023/10/05 07:11:41;;;;;;;10.20;3.10;;;13.70;99.90;;;;;;5013324;28;20206;-77
2023/10/05 07:14:09;;;;;;;8.10;3.50;;;13.70;99.90;;;;;;5021737;28;20210;-76
2023/10/05 07:16:37;;;;;;;5.53;2.88;;;13.70;99.90;;;;;;5016035;28;20199;-76
2023/10/05 07:19:07;;;;;;;6.63;3.65;;;13.80;99.90;;;;;;5015212;28;20219;-76
2023/10/05 07:21:36;;;;;;;11.80;3.72;;;13.80;99.90;;;;;;5026217;28;20203;-76
2023/10/05 07:24:05;;;;;;;8.60;3.42;;;13.80;99.90;;;;;;5021091;28;20210;-76
2023/10/05 07:26:32;;;;;;;7.95;3.35;;;13.80;99.90;;;;;;5018713;28;20203;-76
2023/10/05 07:29:01;;;;;;;6.72;3.35;;;13.70;99.90;;;;;;5017295;28;20227;-76
2023/10/05 07:31:28;;;;;;;10.63;3.35;;;13.70;99.90;;;;;;5017724;28;20200;-77
2023/10/05 07:33:57;;;;;;;6.90;3.38;;;13.80;99.90;;;;;;5025187;28;20870;-77
2023/10/05 07:36:24;;;;;;;9.65;3.42;;;13.90;99.90;;;;;;5033112;28;20674;-77
2023/10/05 07:38:53;;;;;;;8.35;3.83;;;13.90;99.90;;;;;;5014360;28;20220;-77
2023/10/05 07:41:20;;;;;;;7.60;3.50;;;13.80;99.90;;;;;;5020303;28;20577;-76
2023/10/05 07:43:48;;;;;;;7.90;3.13;;;13.90;99.90;;;;;;5011835;28;20207;-76
2023/10/05 07:46:17;;;;;;;10.40;4.05;;;14.00;99.90;;;;;;5011195;28;20184;-76
2023/10/05 07:48:48;;;;;;;8.73;3.50;;;13.90;99.90;;;;;;5016788;28;20230;-78
2023/10/05 07:51:16;;;;;;;10.57;3.45;;;14.00;99.90;;;;;;5013511;28;20206;-78
2023/10/05 07:53:44;;;;;;;9.10;3.40;;;14.10;99.90;;;;;;5015084;28;20712;-78
2023/10/05 07:56:13;;;;;;;8.80;4.07;;;14.00;99.90;;;;;;5016652;28;20203;-77
2023/10/05 07:58:42;;;;;;;7.97;3.65;;;14.10;99.90;;;;;;5011792;28;20215;-77
2023/10/05 08:01:10;;;;;;;6.47;4.13;;;14.10;99.90;;;;;;5018101;28;20641;-78
2023/10/05 08:03:39;;;;;;;10.15;4.03;;;14.10;99.90;;;;;;5016222;28;20199;-77
2023/10/05 08:06:09;;;;;;;8.10;3.42;;;14.10;99.90;;;;;;5023364;28;20198;-77
2023/10/05 08:08:40;;;;;;;8.77;3.75;;;14.20;99.90;;;;;;5014469;28;20247;-78
2023/10/05 08:11:41;;;;;;;6.65;3.40;;;14.20;99.90;;;;;;5016030;28;20194;-78
2023/10/05 08:14:08;;;;;;;7.32;3.78;;;14.30;99.90;;;;;;5031103;28;20206;-78
2023/10/05 08:16:36;;;;;;;6.05;3.65;;;14.30;99.90;;;;;;5017469;28;20207;-78
2023/10/05 08:19:05;;;;;;;8.70;4.03;;;14.40;99.90;;;;;;5009931;28;20238;-78
2023/10/05 08:21:34;;;;;;;7.18;4.07;;;14.30;99.90;;;;;;5027068;28;20207;-78
2023/10/05 08:24:02;;;;;;;7.97;3.88;;;14.30;99.90;;;;;;5018431;28;20207;-78
2023/10/05 08:26:30;;;;;;;7.88;3.75;;;14.40;99.90;;;;;;5018275;28;20208;-78
2023/10/05 08:28:59;;;;;;;11.23;4.25;;;14.50;99.90;;;;;;5025056;28;20218;-78
2023/10/05 08:31:28;;;;;;;14.23;4.55;;;14.40;99.90;;;;;;5020890;28;20210;-78
2023/10/05 08:34:00;;;;;;;8.43;3.83;;;14.40;99.90;;;;;;5015254;28;20212;-78
2023/10/05 08:36:28;;;;;;;7.15;3.67;;;14.60;99.90;;;;;;5022471;28;20222;-78
2023/10/05 08:39:24;;;;;;;7.55;3.38;;;14.60;99.90;;;;;;5019806;28;20689;-77
2023/10/05 08:41:54;;;;;;;11.23;4.57;;;14.70;99.90;;;;;;5026468;28;20199;-78
2023/10/05 08:44:27;;;;;;;7.63;4.05;;;14.80;99.90;;;;;;5033369;28;20198;-79
2023/10/05 08:46:57;;;;;;;7.45;3.22;;;14.90;99.90;;;;;;5030933;28;20203;-76
2023/10/05 08:49:26;;;;;;;8.38;3.88;;;15.10;99.90;;;;;;5030170;28;20223;-76
2023/10/05 08:51:53;;;;;;;5.97;3.08;;;15.50;99.90;;;;;;5020833;28;20206;-78
2023/10/05 08:54:27;;;;;;;9.35;3.28;;;15.50;99.90;;;;;;5021740;28;20207;-78
2023/10/05 08:56:57;;;;;;;8.07;3.08;;;15.30;99.90;;;;;;5020028;28;20207;-78
2023/10/05 08:59:27;;;;;;;9.05;3.47;;;15.20;99.90;;;;;;5033238;28;20310;-78
2023/10/05 09:01:59;;;;;;;8.52;3.60;;;15.30;99.90;;;;;;5027696;28;20187;-78
2023/10/05 09:04:43;;;;;;;7.20;3.35;;;15.20;99.90;;;;;;5025091;28;20203;-78
2023/10/05 09:07:26;;;;;;;8.45;3.50;;;15.30;99.90;;;;;;5029969;28;20561;-78
2023/10/05 09:09:54;;;;;;;10.20;3.35;;;15.30;99.90;;;;;;5016346;28;20619;-78
2023/10/05 09:15:18;;;;;;;7.97;3.88;;;15.60;99.90;;;;;;5011937;28;20207;-78
2023/10/05 09:18:00;;;;;;;9.10;3.50;;;15.40;99.90;;;;;;5013233;28;20199;-78
2023/10/05 09:20:36;;;;;;;6.47;3.33;;;15.30;99.90;;;;;;5018640;28;20203;-78
2023/10/05 09:23:06;;;;;;;8.07;3.38;;;15.50;99.90;;;;;;5019843;28;20198;-78
2023/10/05 09:25:34;;;;;;;10.18;3.97;;;15.70;99.90;;;;;;5026358;28;20202;-78
2023/10/05 09:28:12;;;;;;;6.00;3.28;;;15.40;99.90;;;;;;5022936;28;20709;-79
2023/10/05 09:30:54;;;;;;;8.30;3.50;;;15.30;99.90;;;;;;5017760;28;20207;-78
2023/10/05 09:33:25;;;;;;;8.32;2.90;;;15.50;99.90;;;;;;5018555;28;20198;-79
2023/10/05 09:35:56;;;;;;;6.80;3.20;;;15.50;99.90;;;;;;5018021;28;20199;-78
2023/10/05 09:38:24;;;;;;;7.47;3.60;;;15.60;99.90;;;;;;5024336;28;20708;-78
2023/10/05 09:40:54;;;;;;;7.78;3.30;;;15.50;99.90;;;;;;5020168;28;20208;-78
2023/10/05 09:43:24;;;;;;;9.10;3.85;;;15.50;99.90;;;;;;5013389;28;20559;-78
2023/10/05 09:45:53;;;;;;;8.45;3.63;;;15.60;99.90;;;;;;5022261;28;20677;-78
2023/10/05 09:48:22;;;;;;;9.90;3.15;;;15.70;99.90;;;;;;5030381;28;20574;-77
2023/10/05 09:50:49;;;;;;;7.97;3.40;;;15.60;99.90;;;;;;5024354;28;20207;-77
2023/10/05 09:53:19;;;;;;;11.05;3.92;;;15.80;99.90;;;;;;5030740;28;20222;-78
2023/10/05 09:55:53;;;;;;;10.38;3.92;;;15.70;99.90;;;;;;5021939;28;20218;-78
2023/10/05 09:58:23;;;;;;;11.52;3.63;;;15.70;99.90;;;;;;5018607;28;20226;-79
2023/10/05 10:00:55;;;;;;;10.80;3.80;;;15.90;99.90;;;;;;5028895;28;20203;-79
2023/10/05 10:03:24;;;;;;;9.60;3.90;;;15.80;99.90;;;;;;5042393;28;20648;-78
2023/10/05 10:05:59;;;;;;;10.93;4.07;;;15.80;99.90;;;;;;5016718;28;20203;-78
2023/10/05 10:08:30;;;;;;;7.53;3.05;;;15.80;99.90;;;;;;5028925;28;20229;-79
2023/10/05 10:11:06;;;;;;;9.23;3.75;;;15.90;99.90;;;;;;5013797;28;20203;-78
2023/10/05 10:13:37;;;;;;;6.82;2.72;;;15.90;99.90;;;;;;5012438;28;20204;-78
2023/10/05 10:16:21;;;;;;;7.32;3.55;;;15.90;99.90;;;;;;5018721;28;20212;-78
2023/10/05 10:18:48;;;;;;;7.07;3.47;;;15.90;99.90;;;;;;5017875;28;20577;-78
2023/10/05 10:21:24;;;;;;;10.52;3.63;;;16.00;99.90;;;;;;5016124;28;20203;-78
2023/10/05 10:24:00;;;;;;;9.82;3.38;;;15.90;99.90;;;;;;5016013;28;20202;-77
2023/10/05 10:26:28;;;;;;;7.85;3.75;;;15.90;99.90;;;;;;5025059;28;20548;-78
2023/10/05 10:28:59;;;;;;;5.97;2.95;;;15.90;99.90;;;;;;5021309;28;20224;-78
2023/10/05 10:31:31;;;;;;;7.28;3.42;;;15.80;99.90;;;;;;5026627;28;20207;-76
2023/10/05 10:34:17;;;;;;;5.97;2.85;;;15.80;99.90;;;;;;5022117;28;20637;-76
2023/10/05 10:36:51;;;;;;;8.63;3.63;;;15.80;99.90;;;;;;5015886;28;20665;-78
2023/10/05 10:39:27;;;;;;;8.32;2.97;;;15.80;99.90;;;;;;5028583;28;20223;-77
2023/10/05 10:42:07;;;;;;;7.85;3.20;;;15.80;99.90;;;;;;5030135;28;20211;-78
2023/10/05 10:44:56;;;;;;;8.77;3.65;;;15.90;99.90;;;;;;5024042;28;20214;-78
2023/10/05 10:47:27;;;;;;;7.45;3.38;;;15.90;99.90;;;;;;5016392;28;20200;-78
2023/10/05 10:50:10;;;;;;;6.55;3.67;;;15.90;99.90;;;;;;5026675;28;20227;-78
2023/10/05 10:52:38;;;;;;;6.05;3.05;;;15.90;99.90;;;;;;5018685;28;20195;-78
2023/10/05 10:55:09;;;;;;;9.60;3.80;;;16.00;99.90;;;;;;5014499;28;20211;-78
2023/10/05 10:57:37;;;;;;;9.25;3.38;;;16.20;99.90;;;;;;5025168;28;20194;-78
2023/10/05 11:02:49;;;;;;;6.95;3.25;;;16.20;99.90;;;;;;5015965;28;20191;-78
2023/10/05 11:05:18;;;;;;;8.55;2.90;;;16.20;99.90;;;;;;5017833;28;20204;-78
2023/10/05 11:07:45;;;;;;;9.35;3.33;;;16.20;99.90;;;;;;5018502;28;20199;-77
2023/10/05 11:10:20;;;;;;;11.70;3.53;;;16.20;99.90;;;;;;5020214;28;20223;-77
2023/10/05 11:12:54;;;;;;;6.88;3.08;;;16.10;99.90;;;;;;5023151;28;20207;-77
2023/10/05 11:15:28;;;;;;;6.82;3.17;;;16.20;99.90;;;;;;5023837;28;20204;-77
2023/10/05 11:18:00;;;;;;;8.63;2.88;;;16.20;99.90;;;;;;5024215;28;20206;-77
2023/10/05 11:20:52;;;;;;;7.05;3.20;;;16.30;99.90;;;;;;5019772;28;20555;-77
2023/10/05 11:23:25;;;;;;;4.25;2.90;;;16.40;99.90;;;;;;5021377;28;20192;-77
2023/10/05 11:26:04;;;;;;;5.50;2.92;;;16.40;99.90;;;;;;5011119;28;20207;-77
2023/10/05 11:28:40;;;;;;;4.97;2.30;;;16.50;99.90;;;;;;5025803;28;20222;-77
2023/10/05 11:31:11;;;;;;;5.65;2.58;;;16.50;99.90;;;;;;5021982;28;20226;-77
2023/10/05 11:33:42;;;;;;;7.35;2.95;;;16.60;99.90;;;;;;5016496;28;20200;-77
2023/10/05 11:36:19;;;;;;;6.90;2.53;;;16.70;99.90;;;;;;5022543;28;20553;-77
2023/10/05 11:38:49;;;;;;;5.65;2.75;;;16.70;99.90;;;;;;5019228;28;20230;-77
2023/10/05 11:41:23;;;;;;;6.07;2.80;;;16.60;99.90;;;;;;5018005;28;20205;-77
2023/10/05 11:43:53;;;;;;;6.00;2.80;;;16.80;99.90;;;;;;5024123;28;20205;-78
2023/10/05 11:46:26;;;;;;;6.20;2.53;;;16.80;99.90;;;;;;5013815;28;20188;-78
2023/10/05 11:48:56;;;;;;;7.85;3.30;;;16.60;99.90;;;;;;5017438;28;20241;-78
2023/10/05 11:51:27;;;;;;;5.75;3.40;;;16.80;99.90;;;;;;5023827;28;20222;-78
2023/10/05 11:54:29;;;;;;;7.07;3.50;;;16.90;99.90;;;;;;5018219;28;20557;-78
2023/10/05 11:57:00;;;;;;;8.25;3.33;;;16.80;99.90;;;;;;5020143;28;20679;-78
2023/10/05 11:59:28;;;;;;;8.30;3.70;;;17.00;99.90;;;;;;5016743;28;20211;-78
2023/10/05 12:01:55;;;;;;;7.55;3.28;;;17.30;99.90;;;;;;5023006;28;20207;-78
2023/10/05 12:04:26;;;;;;;6.93;3.47;;;17.10;99.90;;;;;;5028566;28;20199;-78
2023/10/05 12:06:58;;;;;;;5.93;3.85;;;17.20;99.90;;;;;;5021640;28;20203;-78
2023/10/05 12:09:30;;;;;;;7.28;3.85;;;17.40;99.90;;;;;;5019431;28;20226;-78
2023/10/05 12:11:58;;;;;;;7.38;4.28;;;17.40;99.90;;;;;;5015113;28;20200;-78
2023/10/05 12:14:26;;;;;;;8.43;4.60;;;17.70;99.90;;;;;;5028855;28;20664;-78
2023/10/05 12:16:56;;;;;;;6.43;4.03;;;17.60;99.90;;;;;;5015102;28;20210;-78
2023/10/05 12:19:28;;;;;;;4.68;3.65;;;17.40;99.90;;;;;;5022460;28;20211;-78
2023/10/05 12:21:57;;;;;;;5.22;3.67;;;17.20;99.90;;;;;;5038809;28;20200;-78
2023/10/05 12:24:26;;;;;;;6.60;4.20;;;17.40;99.90;;;;;;5014216;28;20214;-78
2023/10/05 12:26:55;;;;;;;6.90;4.68;;;17.40;99.90;;;;;;5029897;28;20206;-78
2023/10/05 12:29:22;;;;;;;6.75;4.22;;;17.60;99.90;;;;;;5029250;28;20224;-78
2023/10/05 12:31:50;;;;;;;9.02;4.05;;;17.90;99.90;;;;;;5015306;28;20224;-78
2023/10/05 12:34:23;;;;;;;6.18;3.97;;;18.00;99.90;;;;;;5013830;28;20203;-78
2023/10/05 12:36:51;;;;;;;9.73;4.95;;;17.70;99.90;;;;;;5027957;28;20536;-78
2023/10/05 12:39:20;;;;;;;8.23;4.63;;;17.70;99.90;;;;;;5026537;28;20227;-78
2023/10/05 12:41:49;;;;;;;5.63;4.47;;;17.60;99.90;;;;;;5040402;22;20199;-78
2023/10/05 12:44:17;;;;;;;6.57;4.68;;;17.60;99.90;;;;;;5009436;28;20195;-77
2023/10/05 12:46:46;;;;;;;8.63;4.57;;;17.70;99.90;;;;;;5016233;28;20203;-77
2023/10/05 12:49:15;;;;;;;7.50;3.78;;;17.80;99.90;;;;;;5017024;28;20203;-77
2023/10/05 12:51:46;;;;;;;7.78;4.40;;;17.80;99.90;;;;;;5011965;28;20223;-76
2023/10/05 12:54:19;;;;;;;7.85;4.40;;;17.90;99.90;;;;;;5033116;28;20198;-78
2023/10/05 12:56:46;;;;;;;6.18;3.85;;;17.90;99.90;;;;;;5025706;28;20194;-79
2023/10/05 12:59:15;;;;;;;8.43;3.88;;;17.70;99.90;;;;;;5033527;28;20213;-77
2023/10/05 13:01:43;;;;;;;4.82;3.50;;;17.70;99.90;;;;;;5033851;28;20202;-78
2023/10/05 13:04:26;;;;;;;8.10;4.00;;;17.70;99.90;;;;;;5028164;28;20218;-79
2023/10/05 13:06:54;;;;;;;6.25;3.38;;;17.50;99.90;;;;;;5031191;28;20195;-79
2023/10/05 13:09:25;;;;;;;10.27;3.30;;;17.30;99.90;;;;;;5033118;28;20202;-77
2023/10/05 13:11:53;;;;;;;9.75;4.32;;;17.50;99.90;;;;;;5024227;28;20223;-77
2023/10/05 13:14:20;;;;;;;6.60;3.38;;;17.30;99.90;;;;;;5021343;28;20691;-78
2023/10/05 13:16:50;;;;;;;5.35;3.83;;;17.10;99.90;;;;;;5018415;28;20203;-77